sensor_id;sensor_type;location;lat;lon;timestamp;P1;durP1;ratioP1;P2;durP2;ratioP2
41233;SDS011;26968;42.686;23.352;2023-01-25T00:00:40;18.05;;;7.55;;
41233;SDS011;26968;42.686;23.352;2023-01-25T00:03:05;14.13;;;7.03;;
41233;SDS011;26968;42.686;23.352;2023-01-25T00:05:30;14.38;;;6.50;;
41233;SDS011;26968;42.686;23.352;2023-01-25T00:07:56;12.43;;;6.60;;
41233;SDS011;26968;42.686;23.352;2023-01-25T00:10:21;12.10;;;7.13;;
41233;SDS011;26968;42.686;23.352;2023-01-25T00:12:47;11.73;;;6.53;;
41233;SDS011;26968;42.686;23.352;2023-01-25T00:15:14;14.20;;;7.13;;
41233;SDS011;26968;42.686;23.352;2023-01-25T00:17:39;11.13;;;6.50;;
41233;SDS011;26968;42.686;23.352;2023-01-25T00:20:05;12.80;;;6.47;;
41233;SDS011;26968;42.686;23.352;2023-01-25T00:22:31;11.05;;;6.60;;
41233;SDS011;26968;42.686;23.352;2023-01-25T00:24:56;10.20;;;5.88;;
41233;SDS011;26968;42.686;23.352;2023-01-25T00:27:22;13.07;;;6.20;;
41233;SDS011;26968;42.686;23.352;2023-01-25T00:29:47;16.65;;;7.38;;
41233;SDS011;26968;42.686;23.352;2023-01-25T00:34:42;12.20;;;6.47;;
41233;SDS011;26968;42.686;23.352;2023-01-25T00:37:19;12.98;;;6.70;;
41233;SDS011;26968;42.686;23.352;2023-01-25T00:39:55;11.07;;;6.68;;
41233;SDS011;26968;42.686;23.352;2023-01-25T00:42:20;12.05;;;6.43;;
41233;SDS011;26968;42.686;23.352;2023-01-25T00:44:46;12.45;;;6.60;;
41233;SDS011;26968;42.686;23.352;2023-01-25T00:47:12;11.68;;;6.10;;
41233;SDS011;26968;42.686;23.352;2023-01-25T00:49:39;12.93;;;6.88;;
41233;SDS011;26968;42.686;23.352;2023-01-25T00:52:06;10.95;;;5.70;;
41233;SDS011;26968;42.686;23.352;2023-01-25T00:54:32;10.88;;;6.00;;
41233;SDS011;26968;42.686;23.352;2023-01-25T00:56:57;10.13;;;5.25;;
41233;SDS011;26968;42.686;23.352;2023-01-25T00:59:23;9.73;;;5.45;;
41233;SDS011;26968;42.686;23.352;2023-01-25T01:01:49;12.10;;;5.95;;
41233;SDS011;26968;42.686;23.352;2023-01-25T01:04:14;12.05;;;6.25;;
41233;SDS011;26968;42.686;23.352;2023-01-25T01:06:40;10.85;;;5.40;;
41233;SDS011;26968;42.686;23.352;2023-01-25T01:09:06;12.27;;;6.38;;
41233;SDS011;26968;42.686;23.352;2023-01-25T01:11:37;11.10;;;5.20;;
41233;SDS011;26968;42.686;23.352;2023-01-25T01:14:02;11.68;;;5.80;;
41233;SDS011;26968;42.686;23.352;2023-01-25T01:16:28;13.57;;;5.68;;
41233;SDS011;26968;42.686;23.352;2023-01-25T01:18:53;14.40;;;6.18;;
41233;SDS011;26968;42.686;23.352;2023-01-25T01:21:19;13.45;;;6.25;;
41233;SDS011;26968;42.686;23.352;2023-01-25T01:23:44;13.50;;;6.75;;
41233;SDS011;26968;42.686;23.352;2023-01-25T01:26:11;13.77;;;6.95;;
41233;SDS011;26968;42.686;23.352;2023-01-25T01:28:38;12.63;;;6.25;;
41233;SDS011;26968;42.686;23.352;2023-01-25T01:31:22;14.93;;;6.90;;
41233;SDS011;26968;42.686;23.352;2023-01-25T01:33:48;13.68;;;6.50;;
41233;SDS011;26968;42.686;23.352;2023-01-25T01:36:18;15.25;;;6.53;;
41233;SDS011;26968;42.686;23.352;2023-01-25T01:38:46;12.25;;;6.63;;
41233;SDS011;26968;42.686;23.352;2023-01-25T01:41:12;12.57;;;6.63;;
41233;SDS011;26968;42.686;23.352;2023-01-25T01:43:38;10.43;;;6.18;;
41233;SDS011;26968;42.686;23.352;2023-01-25T01:48:46;10.25;;;5.53;;
41233;SDS011;26968;42.686;23.352;2023-01-25T01:51:49;9.93;;;5.55;;
41233;SDS011;26968;42.686;23.352;2023-01-25T01:54:24;11.10;;;6.05;;
41233;SDS011;26968;42.686;23.352;2023-01-25T01:56:57;10.00;;;5.90;;
41233;SDS011;26968;42.686;23.352;2023-01-25T01:59:30;9.02;;;5.43;;
41233;SDS011;26968;42.686;23.352;2023-01-25T02:02:04;11.38;;;5.35;;
41233;SDS011;26968;42.686;23.352;2023-01-25T02:04:30;9.00;;;5.10;;
41233;SDS011;26968;42.686;23.352;2023-01-25T02:07:02;9.50;;;5.40;;
41233;SDS011;26968;42.686;23.352;2023-01-25T02:09:28;14.07;;;5.88;;
41233;SDS011;26968;42.686;23.352;2023-01-25T02:11:57;10.23;;;5.57;;
41233;SDS011;26968;42.686;23.352;2023-01-25T02:14:24;10.82;;;5.43;;
41233;SDS011;26968;42.686;23.352;2023-01-25T02:16:52;11.80;;;5.95;;
41233;SDS011;26968;42.686;23.352;2023-01-25T02:22:17;10.55;;;5.32;;
41233;SDS011;26968;42.686;23.352;2023-01-25T02:24:49;12.57;;;5.80;;
41233;SDS011;26968;42.686;23.352;2023-01-25T02:27:30;11.68;;;6.10;;
41233;SDS011;26968;42.686;23.352;2023-01-25T02:29:57;9.70;;;5.65;;
41233;SDS011;26968;42.686;23.352;2023-01-25T02:32:23;10.40;;;5.63;;
41233;SDS011;26968;42.686;23.352;2023-01-25T02:34:48;9.32;;;5.25;;
41233;SDS011;26968;42.686;23.352;2023-01-25T02:37:14;11.48;;;6.03;;
41233;SDS011;26968;42.686;23.352;2023-01-25T02:39:40;10.38;;;5.35;;
41233;SDS011;26968;42.686;23.352;2023-01-25T02:42:06;11.95;;;5.20;;
41233;SDS011;26968;42.686;23.352;2023-01-25T02:44:32;9.98;;;5.28;;
41233;SDS011;26968;42.686;23.352;2023-01-25T02:46:57;10.40;;;5.20;;
41233;SDS011;26968;42.686;23.352;2023-01-25T02:49:23;11.38;;;5.57;;
41233;SDS011;26968;42.686;23.352;2023-01-25T02:51:50;12.68;;;6.18;;
41233;SDS011;26968;42.686;23.352;2023-01-25T02:54:21;9.10;;;5.10;;
41233;SDS011;26968;42.686;23.352;2023-01-25T02:56:48;9.45;;;4.82;;
41233;SDS011;26968;42.686;23.352;2023-01-25T02:59:14;10.20;;;5.65;;
41233;SDS011;26968;42.686;23.352;2023-01-25T03:01:40;8.30;;;4.78;;
41233;SDS011;26968;42.686;23.352;2023-01-25T03:04:07;16.77;;;5.82;;
41233;SDS011;26968;42.686;23.352;2023-01-25T03:06:32;9.50;;;5.15;;
41233;SDS011;26968;42.686;23.352;2023-01-25T03:08:59;10.80;;;4.10;;
41233;SDS011;26968;42.686;23.352;2023-01-25T03:11:25;8.98;;;4.35;;
41233;SDS011;26968;42.686;23.352;2023-01-25T03:13:51;8.65;;;4.07;;
41233;SDS011;26968;42.686;23.352;2023-01-25T03:16:16;9.07;;;5.18;;
41233;SDS011;26968;42.686;23.352;2023-01-25T03:18:42;14.07;;;4.38;;
41233;SDS011;26968;42.686;23.352;2023-01-25T03:23:33;7.28;;;4.05;;
41233;SDS011;26968;42.686;23.352;2023-01-25T03:28:30;12.13;;;4.70;;
41233;SDS011;26968;42.686;23.352;2023-01-25T03:30:56;11.25;;;5.30;;
41233;SDS011;26968;42.686;23.352;2023-01-25T03:33:21;11.48;;;4.60;;
41233;SDS011;26968;42.686;23.352;2023-01-25T03:35:50;11.73;;;5.25;;
41233;SDS011;26968;42.686;23.352;2023-01-25T03:38:16;8.75;;;4.53;;
41233;SDS011;26968;42.686;23.352;2023-01-25T03:40:43;11.48;;;4.95;;
41233;SDS011;26968;42.686;23.352;2023-01-25T03:43:09;10.73;;;4.65;;
41233;SDS011;26968;42.686;23.352;2023-01-25T03:45:34;12.10;;;4.93;;
41233;SDS011;26968;42.686;23.352;2023-01-25T03:47:59;12.23;;;5.28;;
41233;SDS011;26968;42.686;23.352;2023-01-25T03:50:25;11.00;;;5.95;;
41233;SDS011;26968;42.686;23.352;2023-01-25T03:53:01;9.73;;;5.07;;
41233;SDS011;26968;42.686;23.352;2023-01-25T03:55:46;12.90;;;5.68;;
41233;SDS011;26968;42.686;23.352;2023-01-25T03:58:11;10.57;;;5.60;;
41233;SDS011;26968;42.686;23.352;2023-01-25T04:00:36;14.18;;;5.65;;
41233;SDS011;26968;42.686;23.352;2023-01-25T04:03:02;11.95;;;5.72;;
41233;SDS011;26968;42.686;23.352;2023-01-25T04:05:27;9.73;;;5.03;;
41233;SDS011;26968;42.686;23.352;2023-01-25T04:07:52;11.35;;;5.13;;
41233;SDS011;26968;42.686;23.352;2023-01-25T04:10:18;11.30;;;5.22;;
41233;SDS011;26968;42.686;23.352;2023-01-25T04:12:43;12.20;;;5.22;;
41233;SDS011;26968;42.686;23.352;2023-01-25T04:15:09;14.13;;;6.78;;
41233;SDS011;26968;42.686;23.352;2023-01-25T04:17:34;11.27;;;5.25;;
41233;SDS011;26968;42.686;23.352;2023-01-25T04:20:00;10.57;;;5.18;;
41233;SDS011;26968;42.686;23.352;2023-01-25T04:22:25;13.35;;;4.85;;
41233;SDS011;26968;42.686;23.352;2023-01-25T04:24:51;9.77;;;4.88;;
41233;SDS011;26968;42.686;23.352;2023-01-25T04:27:16;9.20;;;4.28;;
41233;SDS011;26968;42.686;23.352;2023-01-25T04:29:41;11.88;;;4.65;;
41233;SDS011;26968;42.686;23.352;2023-01-25T04:32:07;9.20;;;4.88;;
41233;SDS011;26968;42.686;23.352;2023-01-25T04:34:32;6.55;;;4.40;;
41233;SDS011;26968;42.686;23.352;2023-01-25T04:36:57;9.57;;;5.20;;
41233;SDS011;26968;42.686;23.352;2023-01-25T04:39:23;9.90;;;4.78;;
41233;SDS011;26968;42.686;23.352;2023-01-25T04:41:48;12.38;;;4.88;;
41233;SDS011;26968;42.686;23.352;2023-01-25T04:44:14;8.02;;;4.78;;
41233;SDS011;26968;42.686;23.352;2023-01-25T04:46:39;10.02;;;5.40;;
41233;SDS011;26968;42.686;23.352;2023-01-25T04:49:04;10.23;;;5.32;;
41233;SDS011;26968;42.686;23.352;2023-01-25T04:51:30;9.98;;;4.65;;
41233;SDS011;26968;42.686;23.352;2023-01-25T04:53:55;7.03;;;4.18;;
41233;SDS011;26968;42.686;23.352;2023-01-25T04:56:21;10.88;;;5.25;;
41233;SDS011;26968;42.686;23.352;2023-01-25T04:58:46;9.70;;;5.05;;
41233;SDS011;26968;42.686;23.352;2023-01-25T05:01:11;11.25;;;4.72;;
41233;SDS011;26968;42.686;23.352;2023-01-25T05:03:37;11.35;;;4.55;;
41233;SDS011;26968;42.686;23.352;2023-01-25T05:06:02;9.10;;;5.03;;
41233;SDS011;26968;42.686;23.352;2023-01-25T05:08:28;7.38;;;4.10;;
41233;SDS011;26968;42.686;23.352;2023-01-25T05:10:53;8.05;;;4.65;;
41233;SDS011;26968;42.686;23.352;2023-01-25T05:13:19;8.35;;;4.68;;
41233;SDS011;26968;42.686;23.352;2023-01-25T05:15:44;9.43;;;4.93;;
41233;SDS011;26968;42.686;23.352;2023-01-25T05:18:10;11.73;;;4.53;;
41233;SDS011;26968;42.686;23.352;2023-01-25T05:20:35;8.40;;;4.85;;
41233;SDS011;26968;42.686;23.352;2023-01-25T05:23:01;8.65;;;5.10;;
41233;SDS011;26968;42.686;23.352;2023-01-25T05:25:27;6.07;;;4.18;;
41233;SDS011;26968;42.686;23.352;2023-01-25T05:28:11;8.13;;;4.80;;
41233;SDS011;26968;42.686;23.352;2023-01-25T05:30:36;11.80;;;5.30;;
41233;SDS011;26968;42.686;23.352;2023-01-25T05:33:01;10.52;;;5.82;;
41233;SDS011;26968;42.686;23.352;2023-01-25T05:35:27;10.45;;;6.22;;
41233;SDS011;26968;42.686;23.352;2023-01-25T05:37:59;9.70;;;5.47;;
41233;SDS011;26968;42.686;23.352;2023-01-25T05:40:24;12.13;;;5.65;;
41233;SDS011;26968;42.686;23.352;2023-01-25T05:42:57;9.38;;;4.93;;
41233;SDS011;26968;42.686;23.352;2023-01-25T05:45:24;8.93;;;5.10;;
41233;SDS011;26968;42.686;23.352;2023-01-25T05:47:53;10.30;;;5.72;;
41233;SDS011;26968;42.686;23.352;2023-01-25T05:50:20;10.80;;;5.43;;
41233;SDS011;26968;42.686;23.352;2023-01-25T05:52:47;11.85;;;5.45;;
41233;SDS011;26968;42.686;23.352;2023-01-25T05:55:13;9.35;;;4.70;;
41233;SDS011;26968;42.686;23.352;2023-01-25T05:57:38;11.10;;;6.25;;
41233;SDS011;26968;42.686;23.352;2023-01-25T06:00:04;9.60;;;5.78;;
41233;SDS011;26968;42.686;23.352;2023-01-25T06:02:30;12.32;;;6.38;;
41233;SDS011;26968;42.686;23.352;2023-01-25T06:04:56;13.13;;;5.97;;
41233;SDS011;26968;42.686;23.352;2023-01-25T06:07:22;9.65;;;5.70;;
41233;SDS011;26968;42.686;23.352;2023-01-25T06:09:47;9.18;;;5.72;;
41233;SDS011;26968;42.686;23.352;2023-01-25T06:12:13;13.20;;;5.72;;
41233;SDS011;26968;42.686;23.352;2023-01-25T06:14:40;14.02;;;5.95;;
41233;SDS011;26968;42.686;23.352;2023-01-25T06:17:05;12.15;;;5.93;;
41233;SDS011;26968;42.686;23.352;2023-01-25T06:19:31;13.02;;;5.75;;
41233;SDS011;26968;42.686;23.352;2023-01-25T06:21:56;10.98;;;5.28;;
41233;SDS011;26968;42.686;23.352;2023-01-25T06:24:22;13.00;;;5.75;;
41233;SDS011;26968;42.686;23.352;2023-01-25T06:26:47;10.90;;;4.90;;
41233;SDS011;26968;42.686;23.352;2023-01-25T06:29:12;11.30;;;5.07;;
41233;SDS011;26968;42.686;23.352;2023-01-25T06:31:38;12.45;;;5.60;;
41233;SDS011;26968;42.686;23.352;2023-01-25T06:34:04;13.57;;;5.55;;
41233;SDS011;26968;42.686;23.352;2023-01-25T06:36:30;11.88;;;5.47;;
41233;SDS011;26968;42.686;23.352;2023-01-25T06:38:56;14.25;;;4.80;;
41233;SDS011;26968;42.686;23.352;2023-01-25T06:41:23;13.85;;;6.05;;
41233;SDS011;26968;42.686;23.352;2023-01-25T06:43:49;10.93;;;6.03;;
41233;SDS011;26968;42.686;23.352;2023-01-25T06:46:15;12.75;;;5.88;;
41233;SDS011;26968;42.686;23.352;2023-01-25T06:48:40;12.38;;;5.65;;
41233;SDS011;26968;42.686;23.352;2023-01-25T06:51:07;9.23;;;5.05;;
41233;SDS011;26968;42.686;23.352;2023-01-25T06:53:36;9.18;;;5.00;;
41233;SDS011;26968;42.686;23.352;2023-01-25T06:56:10;8.77;;;5.03;;
41233;SDS011;26968;42.686;23.352;2023-01-25T06:58:38;11.07;;;4.95;;
41233;SDS011;26968;42.686;23.352;2023-01-25T07:01:05;16.02;;;5.07;;
41233;SDS011;26968;42.686;23.352;2023-01-25T07:03:33;10.70;;;5.25;;
41233;SDS011;26968;42.686;23.352;2023-01-25T07:06:00;9.07;;;4.18;;
41233;SDS011;26968;42.686;23.352;2023-01-25T07:08:27;8.88;;;4.88;;
41233;SDS011;26968;42.686;23.352;2023-01-25T07:10:56;13.88;;;5.13;;
41233;SDS011;26968;42.686;23.352;2023-01-25T07:13:23;11.65;;;4.78;;
41233;SDS011;26968;42.686;23.352;2023-01-25T07:15:53;10.20;;;5.10;;
41233;SDS011;26968;42.686;23.352;2023-01-25T07:18:20;13.60;;;6.13;;
41233;SDS011;26968;42.686;23.352;2023-01-25T07:20:46;15.60;;;6.25;;
41233;SDS011;26968;42.686;23.352;2023-01-25T07:23:11;13.18;;;5.88;;
41233;SDS011;26968;42.686;23.352;2023-01-25T07:25:36;12.75;;;6.50;;
41233;SDS011;26968;42.686;23.352;2023-01-25T07:28:07;15.45;;;6.97;;
41233;SDS011;26968;42.686;23.352;2023-01-25T07:30:33;12.80;;;6.00;;
41233;SDS011;26968;42.686;23.352;2023-01-25T07:32:58;9.25;;;5.47;;
41233;SDS011;26968;42.686;23.352;2023-01-25T07:35:23;11.82;;;6.07;;
41233;SDS011;26968;42.686;23.352;2023-01-25T07:37:49;10.98;;;6.30;;
41233;SDS011;26968;42.686;23.352;2023-01-25T07:40:14;13.25;;;6.10;;
41233;SDS011;26968;42.686;23.352;2023-01-25T07:42:40;13.90;;;5.65;;
41233;SDS011;26968;42.686;23.352;2023-01-25T07:45:06;8.45;;;5.35;;
41233;SDS011;26968;42.686;23.352;2023-01-25T07:47:32;9.95;;;5.70;;
41233;SDS011;26968;42.686;23.352;2023-01-25T07:49:58;21.35;;;8.75;;
41233;SDS011;26968;42.686;23.352;2023-01-25T07:52:23;13.52;;;5.85;;
41233;SDS011;26968;42.686;23.352;2023-01-25T07:54:49;9.93;;;6.03;;
41233;SDS011;26968;42.686;23.352;2023-01-25T07:57:14;11.07;;;5.78;;
41233;SDS011;26968;42.686;23.352;2023-01-25T07:59:40;14.88;;;5.45;;
41233;SDS011;26968;42.686;23.352;2023-01-25T08:02:07;8.10;;;4.97;;
41233;SDS011;26968;42.686;23.352;2023-01-25T08:04:34;11.45;;;6.15;;
41233;SDS011;26968;42.686;23.352;2023-01-25T08:06:59;12.40;;;6.35;;
41233;SDS011;26968;42.686;23.352;2023-01-25T08:09:25;11.15;;;6.00;;
41233;SDS011;26968;42.686;23.352;2023-01-25T08:11:50;9.98;;;5.78;;
41233;SDS011;26968;42.686;23.352;2023-01-25T08:14:17;13.32;;;6.78;;
41233;SDS011;26968;42.686;23.352;2023-01-25T08:16:43;21.17;;;7.75;;
41233;SDS011;26968;42.686;23.352;2023-01-25T08:19:09;18.17;;;7.65;;
41233;SDS011;26968;42.686;23.352;2023-01-25T08:21:35;13.07;;;7.22;;
41233;SDS011;26968;42.686;23.352;2023-01-25T08:24:02;11.48;;;6.50;;
41233;SDS011;26968;42.686;23.352;2023-01-25T08:26:30;15.93;;;7.18;;
41233;SDS011;26968;42.686;23.352;2023-01-25T08:28:55;15.82;;;8.13;;
41233;SDS011;26968;42.686;23.352;2023-01-25T08:31:22;16.17;;;7.00;;
41233;SDS011;26968;42.686;23.352;2023-01-25T08:33:50;15.63;;;7.95;;
41233;SDS011;26968;42.686;23.352;2023-01-25T08:36:16;14.45;;;8.15;;
41233;SDS011;26968;42.686;23.352;2023-01-25T08:38:43;13.68;;;7.28;;
41233;SDS011;26968;42.686;23.352;2023-01-25T08:41:16;15.77;;;7.60;;
41233;SDS011;26968;42.686;23.352;2023-01-25T08:43:43;11.85;;;6.65;;
41233;SDS011;26968;42.686;23.352;2023-01-25T08:46:09;13.38;;;8.07;;
41233;SDS011;26968;42.686;23.352;2023-01-25T08:48:35;13.70;;;7.45;;
41233;SDS011;26968;42.686;23.352;2023-01-25T08:51:01;12.98;;;7.75;;
41233;SDS011;26968;42.686;23.352;2023-01-25T08:53:28;13.93;;;8.85;;
41233;SDS011;26968;42.686;23.352;2023-01-25T08:56:07;14.77;;;8.25;;
41233;SDS011;26968;42.686;23.352;2023-01-25T08:58:35;14.18;;;7.50;;
41233;SDS011;26968;42.686;23.352;2023-01-25T09:01:02;13.82;;;8.07;;
41233;SDS011;26968;42.686;23.352;2023-01-25T09:03:30;15.00;;;9.27;;
41233;SDS011;26968;42.686;23.352;2023-01-25T09:05:59;16.70;;;9.48;;
41233;SDS011;26968;42.686;23.352;2023-01-25T09:08:24;15.07;;;10.13;;
41233;SDS011;26968;42.686;23.352;2023-01-25T09:10:49;12.63;;;8.35;;
41233;SDS011;26968;42.686;23.352;2023-01-25T09:13:15;16.08;;;8.35;;
41233;SDS011;26968;42.686;23.352;2023-01-25T09:15:40;15.27;;;9.40;;
41233;SDS011;26968;42.686;23.352;2023-01-25T09:18:06;15.57;;;8.75;;
41233;SDS011;26968;42.686;23.352;2023-01-25T09:20:31;12.68;;;7.78;;
41233;SDS011;26968;42.686;23.352;2023-01-25T09:22:56;16.25;;;8.50;;
41233;SDS011;26968;42.686;23.352;2023-01-25T09:25:22;15.68;;;8.35;;
41233;SDS011;26968;42.686;23.352;2023-01-25T09:27:48;17.52;;;9.07;;
41233;SDS011;26968;42.686;23.352;2023-01-25T09:30:15;13.48;;;8.48;;
41233;SDS011;26968;42.686;23.352;2023-01-25T09:32:41;16.92;;;8.40;;
41233;SDS011;26968;42.686;23.352;2023-01-25T09:35:07;19.10;;;8.85;;
41233;SDS011;26968;42.686;23.352;2023-01-25T09:37:32;16.23;;;8.70;;
41233;SDS011;26968;42.686;23.352;2023-01-25T09:39:58;13.25;;;8.30;;
41233;SDS011;26968;42.686;23.352;2023-01-25T09:47:42;12.27;;;8.00;;
41233;SDS011;26968;42.686;23.352;2023-01-25T09:55:39;12.15;;;8.18;;
41233;SDS011;26968;42.686;23.352;2023-01-25T09:58:08;13.82;;;8.57;;
41233;SDS011;26968;42.686;23.352;2023-01-25T10:00:41;12.35;;;7.97;;
41233;SDS011;26968;42.686;23.352;2023-01-25T10:05:58;12.73;;;7.65;;
41233;SDS011;26968;42.686;23.352;2023-01-25T10:08:38;14.13;;;7.43;;
41233;SDS011;26968;42.686;23.352;2023-01-25T10:11:15;11.25;;;7.30;;
41233;SDS011;26968;42.686;23.352;2023-01-25T10:13:51;11.90;;;7.25;;
41233;SDS011;26968;42.686;23.352;2023-01-25T10:16:24;11.57;;;7.10;;
41233;SDS011;26968;42.686;23.352;2023-01-25T10:19:13;16.00;;;7.70;;
41233;SDS011;26968;42.686;23.352;2023-01-25T10:21:58;10.60;;;6.80;;
41233;SDS011;26968;42.686;23.352;2023-01-25T10:24:42;9.55;;;5.60;;
41233;SDS011;26968;42.686;23.352;2023-01-25T10:27:39;9.63;;;5.82;;
41233;SDS011;26968;42.686;23.352;2023-01-25T10:30:26;7.70;;;5.40;;
41233;SDS011;26968;42.686;23.352;2023-01-25T10:32:57;13.68;;;7.00;;
41233;SDS011;26968;42.686;23.352;2023-01-25T10:35:29;10.38;;;5.53;;
41233;SDS011;26968;42.686;23.352;2023-01-25T10:38:02;19.83;;;7.22;;
41233;SDS011;26968;42.686;23.352;2023-01-25T10:40:38;11.80;;;7.18;;
41233;SDS011;26968;42.686;23.352;2023-01-25T10:43:17;13.85;;;7.88;;
41233;SDS011;26968;42.686;23.352;2023-01-25T10:45:44;15.02;;;7.88;;
41233;SDS011;26968;42.686;23.352;2023-01-25T10:48:13;16.98;;;8.57;;
41233;SDS011;26968;42.686;23.352;2023-01-25T10:50:44;12.20;;;6.85;;
41233;SDS011;26968;42.686;23.352;2023-01-25T11:01:29;12.98;;;5.97;;
41233;SDS011;26968;42.686;23.352;2023-01-25T11:03:56;23.13;;;6.72;;
41233;SDS011;26968;42.686;23.352;2023-01-25T11:09:00;7.20;;;5.25;;
41233;SDS011;26968;42.686;23.352;2023-01-25T11:11:52;7.80;;;5.13;;
41233;SDS011;26968;42.686;23.352;2023-01-25T11:14:18;12.10;;;6.35;;
41233;SDS011;26968;42.686;23.352;2023-01-25T11:16:47;12.27;;;6.50;;
41233;SDS011;26968;42.686;23.352;2023-01-25T11:22:08;10.40;;;6.25;;
41233;SDS011;26968;42.686;23.352;2023-01-25T11:24:44;8.10;;;5.30;;
41233;SDS011;26968;42.686;23.352;2023-01-25T11:27:15;17.08;;;5.97;;
41233;SDS011;26968;42.686;23.352;2023-01-25T11:29:44;9.55;;;5.80;;
41233;SDS011;26968;42.686;23.352;2023-01-25T11:32:15;10.65;;;6.05;;
41233;SDS011;26968;42.686;23.352;2023-01-25T11:34:47;12.25;;;5.95;;
41233;SDS011;26968;42.686;23.352;2023-01-25T11:52:46;13.25;;;5.78;;
41233;SDS011;26968;42.686;23.352;2023-01-25T11:55:24;9.75;;;6.20;;
41233;SDS011;26968;42.686;23.352;2023-01-25T12:06:40;11.70;;;6.45;;
41233;SDS011;26968;42.686;23.352;2023-01-25T12:12:32;11.30;;;6.40;;
41233;SDS011;26968;42.686;23.352;2023-01-25T12:17:58;14.60;;;7.03;;
41233;SDS011;26968;42.686;23.352;2023-01-25T12:26:23;10.68;;;6.85;;
41233;SDS011;26968;42.686;23.352;2023-01-25T12:28:56;14.00;;;7.38;;
41233;SDS011;26968;42.686;23.352;2023-01-25T12:34:36;15.38;;;7.53;;
41233;SDS011;26968;42.686;23.352;2023-01-25T12:39:50;10.65;;;6.95;;
41233;SDS011;26968;42.686;23.352;2023-01-25T12:42:43;15.10;;;7.28;;
41233;SDS011;26968;42.686;23.352;2023-01-25T12:45:24;12.02;;;6.45;;
41233;SDS011;26968;42.686;23.352;2023-01-25T12:47:59;10.18;;;6.28;;
41233;SDS011;26968;42.686;23.352;2023-01-25T12:53:20;11.85;;;7.32;;
41233;SDS011;26968;42.686;23.352;2023-01-25T12:58:56;15.40;;;6.82;;
41233;SDS011;26968;42.686;23.352;2023-01-25T13:04:26;16.45;;;7.93;;
41233;SDS011;26968;42.686;23.352;2023-01-25T13:12:22;11.10;;;6.80;;
41233;SDS011;26968;42.686;23.352;2023-01-25T13:14:48;13.00;;;6.90;;
41233;SDS011;26968;42.686;23.352;2023-01-25T13:17:24;12.55;;;6.85;;
41233;SDS011;26968;42.686;23.352;2023-01-25T13:19:56;10.90;;;6.88;;
41233;SDS011;26968;42.686;23.352;2023-01-25T13:25:19;11.20;;;7.43;;
41233;SDS011;26968;42.686;23.352;2023-01-25T13:27:45;13.07;;;7.68;;
41233;SDS011;26968;42.686;23.352;2023-01-25T13:35:23;11.57;;;7.25;;
41233;SDS011;26968;42.686;23.352;2023-01-25T13:40:37;9.95;;;6.90;;
41233;SDS011;26968;42.686;23.352;2023-01-25T13:43:16;16.67;;;8.07;;
41233;SDS011;26968;42.686;23.352;2023-01-25T13:45:44;12.55;;;6.30;;
41233;SDS011;26968;42.686;23.352;2023-01-25T13:48:14;12.75;;;7.15;;
41233;SDS011;26968;42.686;23.352;2023-01-25T13:50:54;12.25;;;7.47;;
41233;SDS011;26968;42.686;23.352;2023-01-25T13:53:30;20.02;;;7.60;;
41233;SDS011;26968;42.686;23.352;2023-01-25T13:56:00;13.13;;;8.05;;
41233;SDS011;26968;42.686;23.352;2023-01-25T14:03:53;15.75;;;7.93;;
41233;SDS011;26968;42.686;23.352;2023-01-25T14:09:05;16.20;;;9.73;;
41233;SDS011;26968;42.686;23.352;2023-01-25T14:11:42;19.65;;;10.52;;
41233;SDS011;26968;42.686;23.352;2023-01-25T14:14:23;18.00;;;9.88;;
41233;SDS011;26968;42.686;23.352;2023-01-25T14:19:34;19.38;;;10.18;;
41233;SDS011;26968;42.686;23.352;2023-01-25T14:27:39;17.70;;;9.50;;
41233;SDS011;26968;42.686;23.352;2023-01-25T14:32:51;24.83;;;11.38;;
41233;SDS011;26968;42.686;23.352;2023-01-25T14:38:16;18.08;;;10.82;;
41233;SDS011;26968;42.686;23.352;2023-01-25T14:40:45;23.65;;;10.50;;
41233;SDS011;26968;42.686;23.352;2023-01-25T14:43:12;24.35;;;10.43;;
41233;SDS011;26968;42.686;23.352;2023-01-25T14:45:38;24.15;;;11.45;;
41233;SDS011;26968;42.686;23.352;2023-01-25T14:48:04;24.27;;;11.82;;
41233;SDS011;26968;42.686;23.352;2023-01-25T14:50:33;18.83;;;10.45;;
41233;SDS011;26968;42.686;23.352;2023-01-25T14:53:08;22.15;;;10.57;;
41233;SDS011;26968;42.686;23.352;2023-01-25T14:55:38;29.92;;;11.40;;
41233;SDS011;26968;42.686;23.352;2023-01-25T15:03:19;19.23;;;9.60;;
41233;SDS011;26968;42.686;23.352;2023-01-25T15:05:46;24.50;;;10.88;;
41233;SDS011;26968;42.686;23.352;2023-01-25T15:08:14;19.60;;;10.82;;
41233;SDS011;26968;42.686;23.352;2023-01-25T15:10:51;27.70;;;11.90;;
41233;SDS011;26968;42.686;23.352;2023-01-25T15:13:20;23.80;;;10.98;;
41233;SDS011;26968;42.686;23.352;2023-01-25T15:15:51;21.98;;;10.93;;
41233;SDS011;26968;42.686;23.352;2023-01-25T15:21:18;21.33;;;10.70;;
41233;SDS011;26968;42.686;23.352;2023-01-25T15:23:55;20.17;;;10.73;;
41233;SDS011;26968;42.686;23.352;2023-01-25T15:26:29;18.65;;;8.90;;
41233;SDS011;26968;42.686;23.352;2023-01-25T15:28:59;18.13;;;10.05;;
41233;SDS011;26968;42.686;23.352;2023-01-25T15:31:45;16.90;;;8.85;;
41233;SDS011;26968;42.686;23.352;2023-01-25T15:34:22;16.88;;;8.73;;
41233;SDS011;26968;42.686;23.352;2023-01-25T15:36:50;16.20;;;8.93;;
41233;SDS011;26968;42.686;23.352;2023-01-25T15:39:17;20.17;;;8.82;;
41233;SDS011;26968;42.686;23.352;2023-01-25T15:41:43;18.45;;;8.82;;
41233;SDS011;26968;42.686;23.352;2023-01-25T15:44:09;17.38;;;9.20;;
41233;SDS011;26968;42.686;23.352;2023-01-25T15:46:36;14.02;;;8.00;;
41233;SDS011;26968;42.686;23.352;2023-01-25T15:49:07;18.08;;;8.88;;
41233;SDS011;26968;42.686;23.352;2023-01-25T15:51:36;19.52;;;8.13;;
41233;SDS011;26968;42.686;23.352;2023-01-25T15:54:01;15.63;;;8.52;;
41233;SDS011;26968;42.686;23.352;2023-01-25T15:56:29;24.38;;;9.40;;
41233;SDS011;26968;42.686;23.352;2023-01-25T15:58:58;15.73;;;8.45;;
41233;SDS011;26968;42.686;23.352;2023-01-25T16:01:26;14.68;;;8.38;;
41233;SDS011;26968;42.686;23.352;2023-01-25T16:03:53;14.80;;;7.93;;
41233;SDS011;26968;42.686;23.352;2023-01-25T16:06:23;20.90;;;8.02;;
41233;SDS011;26968;42.686;23.352;2023-01-25T16:08:56;15.23;;;7.70;;
41233;SDS011;26968;42.686;23.352;2023-01-25T16:11:23;15.13;;;6.97;;
41233;SDS011;26968;42.686;23.352;2023-01-25T16:13:48;17.05;;;7.97;;
41233;SDS011;26968;42.686;23.352;2023-01-25T16:16:16;18.23;;;7.97;;
41233;SDS011;26968;42.686;23.352;2023-01-25T16:18:44;13.93;;;7.15;;
41233;SDS011;26968;42.686;23.352;2023-01-25T16:21:10;13.80;;;7.75;;
41233;SDS011;26968;42.686;23.352;2023-01-25T16:23:36;13.82;;;7.55;;
41233;SDS011;26968;42.686;23.352;2023-01-25T16:26:02;15.13;;;9.10;;
41233;SDS011;26968;42.686;23.352;2023-01-25T16:28:29;21.77;;;9.80;;
41233;SDS011;26968;42.686;23.352;2023-01-25T16:30:54;24.27;;;10.80;;
41233;SDS011;26968;42.686;23.352;2023-01-25T16:33:21;24.15;;;10.10;;
41233;SDS011;26968;42.686;23.352;2023-01-25T16:36:02;16.60;;;8.75;;
41233;SDS011;26968;42.686;23.352;2023-01-25T16:38:35;19.48;;;9.55;;
41233;SDS011;26968;42.686;23.352;2023-01-25T16:41:00;18.63;;;8.80;;
41233;SDS011;26968;42.686;23.352;2023-01-25T16:43:25;13.95;;;7.53;;
41233;SDS011;26968;42.686;23.352;2023-01-25T16:45:55;17.60;;;7.97;;
41233;SDS011;26968;42.686;23.352;2023-01-25T16:48:22;16.95;;;8.65;;